createdAt,value
2022-12-07T06:16:45.469Z,2.40
2022-12-07T06:26:45.350Z,2.27
2022-12-07T06:36:45.413Z,2.24
2022-12-07T06:46:45.364Z,2.23
2022-12-07T06:56:45.339Z,2.21
2022-12-07T07:06:45.400Z,2.18
2022-12-07T07:16:45.407Z,2.21
2022-12-07T07:26:45.529Z,2.16
2022-12-07T07:36:45.494Z,2.10
2022-12-07T07:46:45.669Z,2.10
2022-12-07T07:56:45.512Z,2.12
2022-12-07T08:06:45.595Z,2.14
2022-12-07T08:16:45.548Z,2.20
2022-12-07T08:26:45.508Z,2.13
2022-12-07T08:36:45.586Z,2.09
2022-12-07T08:46:45.472Z,2.15
2022-12-07T08:56:45.627Z,2.27
2022-12-07T09:06:45.885Z,2.38
2022-12-07T09:16:45.519Z,2.47
2022-12-07T09:26:45.511Z,2.59
2022-12-07T09:36:45.542Z,2.67
2022-12-07T09:46:45.393Z,2.65
2022-12-07T09:56:45.488Z,2.65
2022-12-07T10:06:45.438Z,2.78
2022-12-07T10:16:45.548Z,2.86
2022-12-07T10:26:45.566Z,3.07
2022-12-07T10:36:45.540Z,3.03
2022-12-07T10:46:45.573Z,3.30
2022-12-07T10:56:51.023Z,3.31
2022-12-07T11:06:45.526Z,3.42
2022-12-07T11:16:45.384Z,3.36
2022-12-07T11:26:45.282Z,3.33
2022-12-07T11:36:45.516Z,3.25
2022-12-07T11:46:45.673Z,3.19
2022-12-07T11:56:45.547Z,3.33
2022-12-07T12:06:45.696Z,3.38
2022-12-07T12:16:45.598Z,3.37
2022-12-07T12:26:45.524Z,3.30
2022-12-07T12:36:45.389Z,3.35
2022-12-07T12:46:49.663Z,3.31
2022-12-07T12:56:45.648Z,3.37
2022-12-07T13:06:45.581Z,3.48
2022-12-07T13:16:45.394Z,3.45
2022-12-07T13:26:45.402Z,3.44
2022-12-07T13:36:45.468Z,3.40
2022-12-07T13:46:45.504Z,3.38
2022-12-07T13:56:45.273Z,3.27
2022-12-07T14:06:45.467Z,3.30
2022-12-07T14:16:45.601Z,3.30
2022-12-07T14:26:45.282Z,3.31
2022-12-07T14:36:45.480Z,3.37
2022-12-07T14:46:45.658Z,3.35
2022-12-07T14:56:45.527Z,3.40
2022-12-07T15:06:45.368Z,3.39
2022-12-07T15:17:07.817Z,3.34
2022-12-07T15:26:45.362Z,1.29
2022-12-07T15:36:45.439Z,0.43
2022-12-07T15:46:45.532Z,0.04
2022-12-07T15:56:45.562Z,0.07
2022-12-07T16:06:45.435Z,0.41
2022-12-07T16:16:45.309Z,0.51
2022-12-07T16:26:50.005Z,0.79
2022-12-07T16:37:04.655Z,1.27
2022-12-07T16:46:45.442Z,1.12
2022-12-07T16:56:45.433Z,1.44
2022-12-07T17:06:45.427Z,1.57
2022-12-07T17:16:45.633Z,1.29
2022-12-07T17:26:45.532Z,1.30
2022-12-07T17:36:45.388Z,0.84
2022-12-07T17:46:45.459Z,0.24
2022-12-07T17:56:45.488Z,0.07
2022-12-07T18:06:48.973Z,0.07
2022-12-07T18:16:45.447Z,0.05
2022-12-07T18:26:45.400Z,0.08
2022-12-07T18:36:45.209Z,0.12
2022-12-07T18:46:45.320Z,0.13
2022-12-07T18:56:45.299Z,0.09
2022-12-07T19:06:45.352Z,0.05
2022-12-07T19:16:45.468Z,0.07
